createdAt,value
2023-10-12T00:00:29.419Z,8.25
2023-10-12T00:02:59.335Z,8.05
2023-10-12T00:05:30.262Z,9.15
2023-10-12T00:07:57.018Z,10.60
2023-10-12T00:10:24.375Z,9.32
2023-10-12T00:12:54.436Z,9.15
2023-10-12T00:15:26.882Z,11.23
2023-10-12T00:18:05.874Z,9.57
2023-10-12T00:20:32.591Z,10.45
2023-10-12T00:23:00.682Z,7.95
2023-10-12T00:25:27.440Z,9.38
2023-10-12T00:27:54.290Z,15.57
2023-10-12T00:30:22.026Z,9.55
2023-10-12T00:32:49.311Z,10.02
2023-10-12T00:35:18.251Z,7.10
2023-10-12T00:37:45.178Z,11.80
2023-10-12T00:40:33.324Z,10.40
2023-10-12T00:43:02.974Z,9.23
2023-10-12T00:45:30.670Z,9.73
2023-10-12T00:48:02.617Z,8.85
2023-10-12T00:50:30.885Z,7.40
2023-10-12T00:52:59.399Z,9.45
2023-10-12T00:55:38.626Z,8.75
2023-10-12T00:58:06.768Z,9.23
2023-10-12T01:00:46.868Z,8.20
2023-10-12T01:03:46.071Z,12.38
2023-10-12T01:06:13.214Z,9.93
2023-10-12T01:08:44.243Z,10.98
2023-10-12T01:11:19.438Z,13.43
2023-10-12T01:13:56.130Z,12.13
2023-10-12T01:16:41.872Z,15.23
2023-10-12T01:19:08.745Z,9.60
2023-10-12T01:21:39.167Z,10.95
2023-10-12T01:24:13.410Z,9.50
2023-10-12T01:26:50.400Z,10.55
2023-10-12T01:29:21.012Z,8.95
2023-10-12T01:31:53.108Z,8.88
2023-10-12T01:34:25.590Z,9.95
2023-10-12T01:36:53.694Z,8.48
2023-10-12T01:39:20.523Z,12.35
2023-10-12T01:41:48.840Z,12.77
2023-10-12T01:44:17.053Z,11.48
2023-10-12T01:46:44.136Z,9.10
2023-10-12T01:49:15.959Z,8.35
2023-10-12T01:51:46.075Z,9.88
2023-10-12T01:54:14.549Z,11.75
2023-10-12T01:56:41.466Z,11.25
2023-10-12T01:59:08.739Z,10.25
2023-10-12T02:01:35.826Z,9.98
2023-10-12T02:04:06.892Z,10.35
2023-10-12T02:06:33.830Z,7.75
2023-10-12T02:09:09.467Z,11.55
2023-10-12T02:11:46.411Z,11.93
2023-10-12T02:14:25.008Z,11.25
2023-10-12T02:16:54.885Z,9.77
2023-10-12T02:19:33.092Z,10.55
2023-10-12T02:22:02.470Z,10.55
2023-10-12T02:24:29.580Z,11.45
2023-10-12T02:26:56.758Z,10.27
2023-10-12T02:29:24.989Z,11.43
2023-10-12T02:31:52.757Z,10.77
2023-10-12T02:34:27.469Z,10.20
2023-10-12T02:37:11.916Z,10.77
2023-10-12T02:39:42.764Z,10.00
2023-10-12T02:42:17.821Z,12.45
2023-10-12T02:44:50.929Z,7.72
2023-10-12T02:47:24.546Z,10.10
2023-10-12T02:49:51.399Z,9.75
2023-10-12T02:52:21.480Z,14.00
2023-10-12T02:54:51.317Z,9.80
2023-10-12T02:57:26.482Z,9.50
2023-10-12T02:59:58.688Z,9.32
2023-10-12T03:02:33.691Z,11.10
2023-10-12T03:05:07.560Z,11.40
2023-10-12T03:07:40.122Z,11.95
2023-10-12T03:10:16.231Z,10.07
2023-10-12T03:12:45.101Z,10.18
2023-10-12T03:15:15.492Z,14.00
2023-10-12T03:18:02.732Z,9.95
2023-10-12T03:20:36.448Z,10.40
2023-10-12T03:23:14.056Z,10.35
2023-10-12T03:25:44.295Z,10.23
2023-10-12T03:28:31.284Z,10.82
2023-10-12T03:31:16.238Z,11.75
2023-10-12T03:33:47.906Z,10.82
2023-10-12T03:36:24.087Z,10.00
2023-10-12T03:39:10.223Z,8.85
2023-10-12T03:41:54.351Z,11.35
2023-10-12T03:44:34.611Z,9.50
2023-10-12T03:47:20.101Z,9.57
2023-10-12T03:49:54.341Z,11.55
2023-10-12T03:52:22.179Z,9.52
2023-10-12T03:55:00.892Z,9.77
2023-10-12T03:57:36.252Z,11.80
2023-10-12T04:00:07.433Z,9.23
2023-10-12T04:02:43.107Z,12.50
2023-10-12T04:05:35.671Z,11.50
2023-10-12T04:08:06.021Z,9.80
2023-10-12T04:10:48.334Z,12.65
2023-10-12T04:13:28.636Z,13.32
2023-10-12T04:16:06.520Z,12.45
2023-10-12T04:18:34.490Z,12.00
2023-10-12T04:21:03.950Z,13.85
2023-10-12T04:23:33.784Z,15.35
2023-10-12T04:26:16.446Z,17.05
2023-10-12T04:28:51.947Z,13.13
2023-10-12T04:31:22.141Z,14.20
2023-10-12T04:33:58.200Z,15.68
2023-10-12T04:36:34.139Z,10.82
2023-10-12T04:39:10.833Z,13.07
2023-10-12T04:41:40.658Z,15.45
2023-10-12T04:44:28.424Z,14.40
2023-10-12T04:47:06.636Z,11.60
2023-10-12T04:49:44.431Z,13.93
2023-10-12T04:52:14.542Z,13.57
2023-10-12T04:54:54.601Z,14.82
2023-10-12T04:57:27.688Z,13.90
2023-10-12T05:00:10.734Z,12.27
2023-10-12T05:02:50.563Z,12.32
2023-10-12T05:05:21.907Z,14.95
2023-10-12T05:07:58.713Z,13.50
2023-10-12T05:10:49.473Z,10.60
2023-10-12T05:13:23.600Z,10.57
2023-10-12T05:15:57.415Z,10.10
2023-10-12T05:18:25.568Z,10.40
2023-10-12T05:20:53.390Z,12.38
2023-10-12T05:23:20.430Z,11.45
2023-10-12T05:25:59.261Z,11.00
2023-10-12T05:28:32.204Z,11.27
2023-10-12T05:31:11.210Z,14.55
2023-10-12T05:33:38.762Z,10.20
2023-10-12T05:36:13.369Z,11.77
2023-10-12T05:38:50.926Z,11.70
2023-10-12T05:41:34.563Z,13.15
2023-10-12T05:44:09.934Z,11.75
2023-10-12T05:46:37.611Z,11.00
2023-10-12T05:49:14.130Z,10.70
2023-10-12T05:51:45.834Z,11.27
2023-10-12T05:56:51.113Z,10.18
2023-10-12T05:59:19.430Z,12.93
2023-10-12T06:01:52.575Z,14.07
2023-10-12T06:04:23.490Z,11.90
2023-10-12T06:06:52.711Z,9.73
2023-10-12T06:09:25.295Z,10.50
2023-10-12T06:11:55.410Z,12.43
2023-10-12T06:14:22.568Z,11.60
2023-10-12T06:16:57.453Z,15.70
2023-10-12T06:19:24.535Z,11.90
2023-10-12T06:21:54.340Z,12.80
2023-10-12T06:24:37.892Z,11.10
2023-10-12T06:27:19.983Z,10.93
2023-10-12T06:29:51.380Z,12.00
2023-10-12T06:32:20.442Z,11.73
2023-10-12T06:35:08.857Z,9.80
2023-10-12T06:37:51.528Z,9.57
2023-10-12T06:40:24.712Z,8.88
2023-10-12T06:43:11.968Z,9.55
2023-10-12T06:45:50.939Z,9.68
2023-10-12T06:48:42.896Z,10.80
2023-10-12T06:51:14.215Z,8.13
2023-10-12T06:53:42.526Z,7.75
2023-10-12T06:56:25.653Z,9.65
2023-10-12T06:59:13.013Z,10.52
2023-10-12T07:01:47.567Z,8.25
2023-10-12T07:04:15.841Z,8.55
2023-10-12T07:07:09.031Z,12.27
2023-10-12T07:09:44.248Z,12.77
2023-10-12T07:12:14.099Z,13.25
2023-10-12T07:14:49.427Z,10.77
2023-10-12T07:17:16.823Z,9.38
2023-10-12T07:19:55.425Z,12.77
2023-10-12T07:22:22.848Z,12.18
2023-10-12T07:24:54.760Z,11.90
2023-10-12T07:27:23.504Z,9.98
2023-10-12T07:30:11.839Z,12.73
2023-10-12T07:32:55.756Z,13.05
2023-10-12T07:35:33.681Z,16.27
2023-10-12T07:38:01.015Z,11.23
2023-10-12T07:40:36.205Z,12.77
2023-10-12T07:43:05.495Z,13.77
2023-10-12T07:45:49.467Z,11.60
2023-10-12T07:48:44.045Z,14.88
2023-10-12T07:51:17.191Z,11.40
2023-10-12T07:53:45.752Z,10.75
2023-10-12T07:56:18.532Z,10.93
2023-10-12T07:58:58.605Z,11.00
2023-10-12T08:01:26.959Z,10.23
2023-10-12T08:03:54.473Z,11.80
2023-10-12T08:06:36.832Z,11.52
2023-10-12T08:09:06.638Z,12.52
2023-10-12T08:11:36.008Z,12.43
2023-10-12T08:14:31.848Z,11.05
2023-10-12T08:17:17.274Z,10.23
2023-10-12T08:19:44.830Z,9.38
2023-10-12T08:22:27.645Z,12.05
2023-10-12T08:24:59.961Z,11.30
2023-10-12T08:27:40.716Z,11.93
2023-10-12T08:30:25.058Z,9.93
2023-10-12T08:33:00.932Z,8.88
2023-10-12T08:35:38.039Z,10.07
2023-10-12T08:38:13.731Z,11.30
2023-10-12T08:40:58.108Z,13.65
2023-10-12T08:43:43.360Z,12.65
2023-10-12T08:46:12.906Z,13.27
2023-10-12T08:48:53.976Z,12.07
2023-10-12T08:51:30.294Z,11.10
2023-10-12T08:54:02.840Z,12.77
2023-10-12T08:56:34.078Z,10.55
2023-10-12T08:59:06.429Z,11.38
2023-10-12T09:01:37.440Z,11.90
2023-10-12T09:04:12.905Z,13.25
2023-10-12T09:06:45.800Z,12.95
2023-10-12T09:09:27.517Z,13.50
2023-10-12T09:12:01.482Z,13.77
2023-10-12T09:14:28.418Z,14.50
2023-10-12T09:16:55.868Z,14.60
2023-10-12T09:19:30.045Z,11.93
2023-10-12T09:22:02.247Z,9.50
2023-10-12T09:24:36.253Z,13.35
2023-10-12T09:27:12.890Z,12.00
2023-10-12T09:29:58.253Z,10.48
2023-10-12T09:32:29.247Z,8.85
2023-10-12T09:35:14.645Z,10.57
2023-10-12T09:37:45.389Z,13.90
2023-10-12T09:40:28.828Z,11.55
2023-10-12T09:43:08.488Z,11.27
2023-10-12T09:45:46.554Z,13.20
2023-10-12T09:48:30.351Z,13.05
2023-10-12T09:50:57.907Z,12.23
2023-10-12T09:53:38.151Z,12.50
2023-10-12T09:56:13.098Z,14.52
2023-10-12T09:58:53.492Z,13.48
2023-10-12T10:01:44.307Z,11.63
2023-10-12T10:04:26.295Z,13.23
2023-10-12T10:07:26.599Z,11.30
2023-10-12T10:10:00.593Z,10.60
2023-10-12T10:12:34.489Z,13.55
2023-10-12T10:15:11.624Z,11.75
2023-10-12T10:17:48.294Z,12.90
2023-10-12T10:20:25.344Z,11.32
2023-10-12T10:23:00.322Z,9.68
2023-10-12T10:25:38.929Z,11.93
2023-10-12T10:28:11.699Z,10.68
2023-10-12T10:30:42.605Z,13.35
2023-10-12T10:33:15.149Z,13.32
2023-10-12T10:36:12.090Z,12.88
2023-10-12T10:38:55.634Z,12.05
2023-10-12T10:41:45.109Z,12.13
2023-10-12T10:44:22.983Z,12.55
2023-10-12T10:46:59.075Z,10.52
2023-10-12T10:49:34.808Z,17.98
2023-10-12T10:52:09.960Z,11.10
2023-10-12T10:54:41.379Z,11.13
2023-10-12T10:57:18.699Z,11.80
2023-10-12T10:59:47.326Z,13.00
2023-10-12T11:02:15.788Z,11.18
2023-10-12T11:04:45.857Z,12.07
2023-10-12T11:07:19.070Z,11.32
2023-10-12T11:09:54.975Z,10.20
2023-10-12T11:12:24.902Z,13.23
2023-10-12T11:15:02.927Z,14.38
2023-10-12T11:17:31.905Z,11.07
2023-10-12T11:20:08.105Z,9.82
2023-10-12T11:22:38.372Z,11.85
2023-10-12T11:25:13.671Z,12.82
2023-10-12T11:27:41.194Z,10.73
2023-10-12T11:30:08.830Z,11.70
2023-10-12T11:32:55.509Z,11.93
2023-10-12T11:35:42.369Z,10.82
2023-10-12T11:38:19.363Z,10.50
2023-10-12T11:40:53.701Z,10.85
2023-10-12T11:43:22.607Z,11.60
2023-10-12T11:46:05.539Z,11.57
2023-10-12T11:48:32.950Z,10.80
2023-10-12T11:51:01.476Z,10.20
2023-10-12T11:53:29.659Z,11.63
2023-10-12T11:56:03.326Z,10.00
2023-10-12T11:58:32.406Z,10.63
2023-10-12T12:01:01.855Z,12.57
2023-10-12T12:03:28.689Z,11.23
2023-10-12T12:05:55.701Z,11.50
2023-10-12T12:08:26.260Z,10.80
2023-10-12T12:10:57.632Z,12.18
2023-10-12T12:13:24.727Z,13.38
2023-10-12T12:15:56.631Z,12.77
2023-10-12T12:18:24.011Z,12.63
2023-10-12T12:20:58.583Z,11.90
2023-10-12T12:23:29.230Z,11.85
2023-10-12T12:26:02.528Z,9.82
2023-10-12T12:28:33.721Z,12.23
2023-10-12T12:31:05.796Z,12.10
2023-10-12T12:33:32.558Z,13.40
2023-10-12T12:36:02.461Z,10.40
2023-10-12T12:38:39.315Z,13.43
2023-10-12T12:41:23.455Z,9.70
2023-10-12T12:43:51.106Z,10.27
2023-10-12T12:46:19.067Z,10.07
2023-10-12T12:48:49.904Z,8.98
2023-10-12T12:51:17.402Z,11.98
2023-10-12T12:53:47.972Z,13.73
2023-10-12T12:56:19.489Z,10.10
2023-10-12T12:58:48.907Z,13.82
2023-10-12T13:01:24.803Z,13.13
2023-10-12T13:03:58.531Z,11.32
2023-10-12T13:06:26.038Z,12.43
2023-10-12T13:08:53.211Z,10.82
2023-10-12T13:11:23.251Z,9.55
2023-10-12T13:13:50.070Z,13.88
2023-10-12T13:16:17.478Z,12.57
2023-10-12T13:18:48.648Z,13.18
2023-10-12T13:21:16.922Z,13.80
2023-10-12T13:23:44.969Z,13.63
2023-10-12T13:26:18.418Z,14.75
2023-10-12T13:28:45.534Z,10.90
2023-10-12T13:31:12.509Z,12.07
2023-10-12T13:33:43.300Z,11.68
2023-10-12T13:36:10.645Z,12.88
2023-10-12T13:38:38.762Z,11.27
2023-10-12T13:41:06.717Z,10.35
2023-10-12T13:43:36.195Z,11.35
2023-10-12T13:46:08.992Z,12.45
2023-10-12T13:48:39.118Z,12.93
2023-10-12T13:51:10.015Z,12.50
2023-10-12T13:53:40.396Z,11.77
2023-10-12T13:56:10.257Z,13.57
2023-10-12T13:58:38.081Z,11.63
2023-10-12T14:01:06.309Z,13.90
2023-10-12T14:03:36.854Z,10.63
2023-10-12T14:06:07.915Z,12.68
2023-10-12T14:08:36.588Z,13.50
2023-10-12T14:11:08.026Z,14.48
2023-10-12T14:13:35.100Z,13.65
2023-10-12T14:16:02.476Z,10.85
2023-10-12T14:18:29.638Z,11.27
2023-10-12T14:20:56.848Z,11.88
2023-10-12T14:23:27.637Z,10.70
2023-10-12T14:25:58.317Z,12.98
2023-10-12T14:28:32.787Z,13.65
2023-10-12T14:30:59.765Z,13.55
2023-10-12T14:33:26.597Z,10.98
2023-10-12T14:35:53.265Z,13.32
2023-10-12T14:38:20.041Z,12.45
2023-10-12T14:40:47.175Z,10.98
2023-10-12T14:43:15.996Z,10.65
2023-10-12T14:45:50.962Z,12.15
2023-10-12T14:48:17.903Z,13.10
2023-10-12T14:50:50.465Z,11.73
2023-10-12T14:53:22.111Z,9.85
2023-10-12T14:55:50.002Z,11.55
2023-10-12T14:58:18.355Z,10.48
2023-10-12T15:00:45.706Z,12.68
2023-10-12T15:03:22.963Z,10.70
2023-10-12T15:05:56.886Z,13.82
2023-10-12T15:08:27.650Z,10.35
2023-10-12T15:10:58.357Z,14.00
2023-10-12T15:13:27.065Z,11.60
2023-10-12T15:15:54.794Z,14.25
2023-10-12T15:18:26.034Z,13.98
2023-10-12T15:20:58.183Z,13.50
2023-10-12T15:23:29.839Z,11.05
2023-10-12T15:26:02.009Z,17.05
2023-10-12T15:28:29.625Z,11.05
2023-10-12T15:30:56.364Z,10.57
2023-10-12T15:33:23.959Z,13.45
2023-10-12T15:35:50.981Z,12.60
2023-10-12T15:38:19.067Z,14.32
2023-10-12T15:40:46.002Z,11.23
2023-10-12T15:43:18.974Z,12.60
2023-10-12T15:45:48.047Z,13.23
2023-10-12T15:48:16.211Z,12.63
2023-10-12T15:50:43.133Z,12.50
2023-10-12T15:53:10.525Z,15.52
2023-10-12T15:55:37.376Z,12.27
2023-10-12T15:58:04.315Z,11.23
2023-10-12T16:00:32.488Z,18.88
2023-10-12T16:03:08.744Z,15.70
2023-10-12T16:05:37.561Z,17.08
2023-10-12T16:08:12.245Z,12.02
2023-10-12T16:10:39.572Z,12.43
2023-10-12T16:13:09.922Z,15.23
2023-10-12T16:15:37.578Z,16.13
2023-10-12T16:18:04.583Z,11.80
2023-10-12T16:20:31.556Z,12.65
2023-10-12T16:22:59.557Z,11.63
2023-10-12T16:25:28.610Z,10.82
2023-10-12T16:27:56.697Z,12.25
2023-10-12T16:30:23.425Z,13.35
2023-10-12T16:32:52.016Z,12.45
2023-10-12T16:35:26.079Z,12.43
2023-10-12T16:37:56.930Z,12.60
2023-10-12T16:40:26.648Z,11.02
2023-10-12T16:42:55.267Z,17.50
2023-10-12T16:45:23.866Z,13.85
2023-10-12T16:47:51.482Z,14.68
2023-10-12T16:50:19.560Z,12.55
2023-10-12T16:52:50.208Z,13.57
2023-10-12T16:55:18.189Z,14.65
2023-10-12T16:57:46.343Z,17.40
2023-10-12T17:00:16.648Z,12.50
2023-10-12T17:02:45.683Z,14.23
2023-10-12T17:05:23.195Z,17.75
2023-10-12T17:07:49.856Z,18.17
2023-10-12T17:10:27.115Z,14.82
2023-10-12T17:12:54.151Z,17.10
2023-10-12T17:15:22.190Z,15.05
2023-10-12T17:17:50.962Z,14.27
2023-10-12T17:20:17.676Z,15.13
2023-10-12T17:22:44.481Z,17.80
2023-10-12T17:25:13.795Z,16.65
2023-10-12T17:27:41.918Z,17.65
2023-10-12T17:30:10.323Z,21.85
2023-10-12T17:32:38.336Z,19.30
2023-10-12T17:35:05.628Z,17.45
2023-10-12T17:37:36.136Z,17.48
2023-10-12T17:40:02.975Z,20.92
2023-10-12T17:42:32.861Z,18.45
2023-10-12T17:45:02.542Z,20.45
2023-10-12T17:47:29.429Z,22.45
2023-10-12T17:49:56.638Z,21.33
2023-10-12T17:52:24.635Z,21.85
2023-10-12T17:54:51.388Z,21.92
2023-10-12T17:57:19.873Z,16.92
2023-10-12T17:59:48.301Z,23.80
2023-10-12T18:02:15.655Z,20.08
2023-10-12T18:04:47.089Z,17.92
2023-10-12T18:07:14.116Z,18.23
2023-10-12T18:09:44.338Z,23.63
2023-10-12T18:12:11.928Z,19.83
2023-10-12T18:14:39.712Z,19.45
2023-10-12T18:17:06.721Z,17.17
2023-10-12T18:19:34.643Z,23.65
2023-10-12T18:22:01.693Z,20.40
2023-10-12T18:24:28.537Z,20.58
2023-10-12T18:26:57.174Z,21.75
2023-10-12T18:29:23.960Z,23.42
2023-10-12T18:31:51.089Z,24.90
2023-10-12T18:34:18.180Z,21.85
2023-10-12T18:36:49.755Z,24.10
2023-10-12T18:39:22.872Z,26.35
2023-10-12T18:41:49.652Z,25.48
2023-10-12T18:44:16.380Z,23.88
2023-10-12T18:46:44.629Z,26.67
2023-10-12T18:49:13.005Z,25.30
2023-10-12T18:51:39.907Z,28.42
2023-10-12T18:54:09.693Z,29.73
2023-10-12T18:56:37.046Z,24.77
2023-10-12T18:59:08.617Z,25.08
2023-10-12T19:01:35.826Z,25.23
2023-10-12T19:04:02.723Z,26.10
2023-10-12T19:06:31.024Z,26.83
2023-10-12T19:08:58.886Z,24.17
2023-10-12T19:11:25.637Z,26.00
2023-10-12T19:13:52.563Z,25.17
2023-10-12T19:16:20.788Z,28.77
2023-10-12T19:18:49.310Z,27.00
2023-10-12T19:21:20.738Z,25.27
2023-10-12T19:23:47.960Z,28.98
2023-10-12T19:26:15.886Z,27.00
2023-10-12T19:28:45.231Z,24.80
2023-10-12T19:31:15.006Z,29.48
2023-10-12T19:33:43.157Z,27.65
2023-10-12T19:36:11.319Z,27.25
2023-10-12T19:38:41.585Z,28.88
2023-10-12T19:41:09.645Z,27.33
2023-10-12T19:43:41.112Z,31.25
2023-10-12T19:46:13.468Z,26.88
2023-10-12T19:48:40.763Z,26.10
2023-10-12T19:51:15.110Z,29.33
2023-10-12T19:53:46.667Z,28.88
2023-10-12T19:56:16.246Z,29.30
2023-10-12T19:58:44.345Z,28.25
2023-10-12T20:01:12.652Z,28.38
2023-10-12T20:03:40.407Z,25.40
2023-10-12T20:06:11.487Z,26.23
2023-10-12T20:08:39.620Z,29.67
2023-10-12T20:11:07.632Z,24.83
2023-10-12T20:13:35.215Z,25.60
2023-10-12T20:16:06.052Z,23.55
2023-10-12T20:18:33.367Z,20.27
2023-10-12T20:21:00.433Z,22.33
2023-10-12T20:23:27.225Z,19.60
2023-10-12T20:25:54.521Z,20.48
2023-10-12T20:28:25.149Z,20.92
2023-10-12T20:30:52.760Z,19.13
2023-10-12T20:33:21.443Z,16.67
2023-10-12T20:35:49.040Z,16.95
2023-10-12T20:38:17.138Z,16.58
2023-10-12T20:40:47.783Z,17.92
2023-10-12T20:43:18.939Z,17.77
2023-10-12T20:46:01.494Z,16.30
2023-10-12T20:48:28.724Z,18.20
2023-10-12T20:51:01.289Z,14.10
2023-10-12T20:53:29.279Z,17.33
2023-10-12T20:55:56.151Z,13.43
2023-10-12T20:58:24.610Z,15.95
2023-10-12T21:00:59.091Z,15.88
2023-10-12T21:03:37.320Z,14.75
2023-10-12T21:06:09.044Z,13.75
2023-10-12T21:08:43.989Z,15.25
2023-10-12T21:11:20.096Z,15.52
2023-10-12T21:13:58.032Z,14.73
2023-10-12T21:16:27.783Z,15.82
2023-10-12T21:19:06.350Z,14.45
2023-10-12T21:21:33.391Z,16.55
2023-10-12T21:24:18.117Z,15.00
2023-10-12T21:29:19.308Z,14.55
2023-10-12T21:31:58.658Z,14.23
2023-10-12T21:34:25.716Z,14.10
2023-10-12T21:36:52.960Z,13.93
2023-10-12T21:39:45.840Z,14.25
2023-10-12T21:42:13.494Z,12.48
2023-10-12T21:44:41.645Z,13.18
2023-10-12T21:47:11.479Z,14.70
2023-10-12T21:49:39.552Z,14.55
2023-10-12T21:52:09.598Z,13.23
2023-10-12T21:54:37.074Z,11.93
2023-10-12T21:57:06.724Z,13.27
2023-10-12T21:59:33.993Z,14.88
2023-10-12T22:02:15.530Z,13.57
2023-10-12T22:04:47.298Z,16.08
2023-10-12T22:07:15.719Z,15.52
2023-10-12T22:09:46.058Z,16.98
2023-10-12T22:12:14.734Z,17.08
2023-10-12T22:15:00.483Z,13.82
2023-10-12T22:17:28.871Z,15.55
2023-10-12T22:19:57.270Z,14.55
2023-10-12T22:22:24.413Z,12.20
2023-10-12T22:24:55.199Z,13.38
2023-10-12T22:27:23.100Z,17.23
2023-10-12T22:29:49.847Z,12.57
2023-10-12T22:32:16.615Z,14.13
2023-10-12T22:34:43.317Z,13.77
2023-10-12T22:37:11.511Z,16.60
2023-10-12T22:39:39.106Z,12.35
2023-10-12T22:42:05.878Z,13.40
2023-10-12T22:44:35.603Z,14.70
2023-10-12T22:47:03.890Z,14.85
2023-10-12T22:49:33.768Z,14.93
2023-10-12T22:52:05.186Z,12.50
2023-10-12T22:54:34.952Z,12.88
2023-10-12T22:57:06.323Z,14.13
2023-10-12T22:59:33.573Z,14.20
2023-10-12T23:02:00.843Z,15.90
2023-10-12T23:04:28.150Z,12.95
2023-10-12T23:06:55.604Z,13.90
2023-10-12T23:09:24.380Z,15.32
2023-10-12T23:11:55.387Z,12.98
2023-10-12T23:14:24.063Z,15.23
2023-10-12T23:16:52.292Z,13.45
2023-10-12T23:19:44.760Z,15.05
2023-10-12T23:22:34.842Z,15.30
2023-10-12T23:25:02.207Z,15.02
2023-10-12T23:27:33.243Z,14.75
2023-10-12T23:30:01.616Z,12.85
2023-10-12T23:32:29.218Z,13.65
2023-10-12T23:34:56.729Z,19.25
2023-10-12T23:37:43.930Z,15.73
2023-10-12T23:40:14.407Z,14.82
2023-10-12T23:42:41.364Z,14.50
2023-10-12T23:45:27.433Z,14.55
2023-10-12T23:48:08.662Z,14.10
2023-10-12T23:53:08.666Z,16.42
2023-10-12T23:55:42.086Z,17.15
2023-10-12T23:58:08.998Z,16.25
